Time;durP1;ratioP1;P1;durP2;ratioP2;P2;SDS_P1;SDS_P2;PMS_P1;PMS_P2;Temp;Humidity;BMP_temperature;BMP_pressure;BME280_temperature;BME280_humidity;BME280_pressure;Samples;Min_cycle;Max_cycle;Signal;HPM_P1;HPM_P2
2022/07/19 00:01:28;;;;;;;9.02;5.20;;;;;;;21.32;85.59;101936.38;7377378;19;19999;-72
2022/07/19 00:03:59;;;;;;;8.38;4.93;;;;;;;21.30;83.25;101935.53;7380918;19;20014;-72
2022/07/19 00:06:29;;;;;;;11.35;5.35;;;;;;;21.26;83.67;101938.25;7377455;19;20070;-72
2022/07/19 00:08:59;;;;;;;11.85;4.97;;;;;;;21.20;83.89;101926.72;7376735;19;20014;-72
2022/07/19 00:11:32;;;;;;;8.35;4.70;;;;;;;21.17;85.55;101926.78;7378181;19;20036;-72
2022/07/19 00:14:02;;;;;;;7.68;4.65;;;;;;;21.14;85.30;101923.25;7375915;19;20018;-72
2022/07/19 00:16:32;;;;;;;8.73;5.18;;;;;;;21.09;86.42;101917.09;7377913;19;20591;-72
2022/07/19 00:19:02;;;;;;;10.40;4.75;;;;;;;21.04;85.25;101913.63;7376467;19;20007;-72
2022/07/19 00:21:32;;;;;;;10.18;5.15;;;;;;;20.99;85.32;101916.34;7376860;19;20162;-72
2022/07/19 00:24:03;;;;;;;9.43;5.10;;;;;;;20.96;86.58;101913.72;7374891;19;20086;-72
2022/07/19 00:26:36;;;;;;;9.35;5.32;;;;;;;20.90;85.53;101913.78;7379900;19;20027;-74
2022/07/19 00:29:06;;;;;;;12.27;5.43;;;;;;;20.87;87.61;101914.72;7376553;19;20135;-74
2022/07/19 00:31:36;;;;;;;7.93;4.68;;;;;;;20.86;86.18;101912.06;7377446;19;20082;-75
2022/07/19 00:34:06;;;;;;;9.18;5.10;;;;;;;20.82;87.54;101913.88;7376835;19;20048;-75
2022/07/19 00:36:36;;;;;;;9.20;5.00;;;;;;;20.78;86.67;101908.63;7379195;19;20018;-73
2022/07/19 00:39:06;;;;;;;9.73;4.95;;;;;;;20.74;87.07;101907.78;7377811;19;20057;-73
2022/07/19 00:41:44;;;;;;;9.20;5.45;;;;;;;20.71;88.10;101912.28;7376715;19;20366;-75
2022/07/19 00:44:15;;;;;;;10.32;5.55;;;;;;;20.69;89.63;101914.06;7378599;19;20120;-74
2022/07/19 00:46:45;;;;;;;8.23;5.32;;;;;;;20.65;87.67;101918.56;7376532;19;20098;-74
2022/07/19 00:49:15;;;;;;;9.25;5.03;;;;;;;20.64;88.71;101921.25;7379290;19;20132;-75
2022/07/19 00:51:45;;;;;;;9.18;5.18;;;;;;;20.62;88.70;101921.25;7375154;19;20446;-74
2022/07/19 00:54:16;;;;;;;9.45;5.70;;;;;;;20.55;90.30;101916.91;7375044;19;20022;-74
2022/07/19 00:56:51;;;;;;;10.75;5.13;;;;;;;20.56;90.58;101913.31;7377035;19;20011;-74
2022/07/19 00:59:21;;;;;;;9.85;5.20;;;;;;;20.50;91.07;101919.59;7377070;19;20393;-74
2022/07/19 01:01:51;;;;;;;13.65;5.65;;;;;;;20.48;93.99;101916.06;7378685;19;20010;-74
2022/07/19 01:04:25;;;;;;;8.82;5.78;;;;;;;20.47;92.29;101919.63;7377100;19;20010;-74
2022/07/19 01:06:55;;;;;;;10.40;5.75;;;;;;;20.43;93.07;101903.69;7376253;19;20077;-73
2022/07/19 01:09:25;;;;;;;9.40;5.22;;;;;;;20.39;91.60;101904.63;7377017;19;20014;-73
2022/07/19 01:11:59;;;;;;;7.80;4.95;;;;;;;20.34;91.78;101896.66;7374692;19;20010;-72
2022/07/19 01:14:31;;;;;;;10.05;5.55;;;;;;;20.35;92.81;101901.09;7377826;19;20018;-73
2022/07/19 01:17:01;;;;;;;9.73;5.63;;;;;;;20.33;92.31;101913.53;7375805;19;20037;-72
2022/07/19 01:19:32;;;;;;;12.27;7.53;;;;;;;20.30;93.06;101918.88;7376003;19;20010;-73
2022/07/19 01:22:04;;;;;;;11.82;6.72;;;;;;;20.24;92.52;101911.84;7376618;19;20062;-72
2022/07/19 01:24:34;;;;;;;12.20;6.28;;;;;;;20.21;93.06;101903.88;7373821;19;20018;-71
2022/07/19 01:27:05;;;;;;;10.95;6.25;;;;;;;20.19;93.11;101896.81;7368887;19;20307;-72
2022/07/19 01:29:36;;;;;;;11.00;6.30;;;;;;;20.13;92.34;101897.75;7375588;19;20014;-73
2022/07/19 01:32:07;;;;;;;9.50;5.82;;;;;;;20.09;92.96;101903.13;7377442;19;20358;-74
2022/07/19 01:34:37;;;;;;;9.90;5.95;;;;;;;20.09;93.49;101900.44;7371368;19;20010;-74
2022/07/19 01:37:09;;;;;;;10.65;5.50;;;;;;;20.04;92.67;101897.81;7379331;19;20044;-74
2022/07/19 01:39:39;;;;;;;10.75;6.60;;;;;;;20.04;94.25;101896.94;7375440;19;20010;-73
2022/07/19 01:42:09;;;;;;;13.60;6.70;;;;;;;20.03;93.48;101900.50;7376224;19;20010;-73
2022/07/19 01:44:39;;;;;;;12.68;7.45;;;;;;;20.02;94.93;101898.72;7378974;19;20036;-73
2022/07/19 01:47:09;;;;;;;12.95;6.93;;;;;;;20.00;93.33;101887.22;7378086;19;20320;-73
2022/07/19 01:49:39;;;;;;;14.88;8.73;;;;;;;20.02;93.93;101888.09;7376661;19;20074;-73
2022/07/19 01:52:11;;;;;;;13.73;8.27;;;;;;;20.02;93.10;101888.09;7377974;19;20556;-73
2022/07/19 01:54:41;;;;;;;17.13;9.40;;;;;;;20.01;92.80;101891.63;7374995;19;20019;-72
2022/07/19 01:57:11;;;;;;;17.48;11.05;;;;;;;20.00;93.25;101890.75;7378408;19;20048;-73
2022/07/19 01:59:41;;;;;;;19.30;12.32;;;;;;;20.05;93.04;101882.72;7373297;19;20018;-73
2022/07/19 02:02:11;;;;;;;22.05;11.48;;;;;;;20.09;92.41;101876.47;7375109;19;20048;-73
2022/07/19 02:04:41;;;;;;;19.80;11.73;;;;;;;20.12;92.26;101881.78;7374337;19;20019;-73
2022/07/19 02:07:13;;;;;;;18.23;10.48;;;;;;;20.09;91.81;101889.78;7376127;19;20018;-73
2022/07/19 02:09:43;;;;;;;20.73;12.18;;;;;;;20.07;91.47;101888.94;7375889;19;20044;-73
2022/07/19 02:12:13;;;;;;;19.83;11.73;;;;;;;20.05;91.97;101882.72;7373276;19;20460;-73
2022/07/19 02:14:43;;;;;;;21.17;11.88;;;;;;;20.05;92.47;101877.41;7375223;19;20023;-73
2022/07/19 02:17:13;;;;;;;20.42;12.00;;;;;;;20.07;92.70;101881.81;7373903;19;20022;-73
2022/07/19 02:19:43;;;;;;;17.00;11.27;;;;;;;20.07;92.13;101872.94;7372937;19;20014;-73
2022/07/19 02:22:19;;;;;;;17.35;12.23;;;;;;;20.07;91.84;101868.50;7374554;19;20021;-73
2022/07/19 02:24:49;;;;;;;20.85;12.52;;;;;;;20.05;91.99;101861.44;7372661;19;20006;-72
2022/07/19 02:27:19;;;;;;;19.00;12.40;;;;;;;20.01;92.25;101865.00;7377312;19;20036;-73
2022/07/19 02:29:49;;;;;;;21.80;12.15;;;;;;;19.97;93.28;101871.25;7373081;19;20024;-73
2022/07/19 02:32:19;;;;;;;19.10;11.70;;;;;;;19.90;92.22;101868.66;7375452;19;20364;-73
2022/07/19 02:34:50;;;;;;;22.25;13.45;;;;;;;19.89;92.94;101866.91;7372775;19;20039;-73
2022/07/19 02:37:23;;;;;;;19.63;11.38;;;;;;;19.86;93.86;101872.25;7370395;19;20033;-75
2022/07/19 02:39:53;;;;;;;21.70;13.68;;;;;;;19.84;93.42;101865.16;7375215;19;20021;-75
2022/07/19 02:42:23;;;;;;;17.98;11.68;;;;;;;19.79;93.41;101867.88;7374722;19;20019;-74
2022/07/19 02:44:53;;;;;;;22.95;12.73;;;;;;;19.78;93.21;101871.44;7374990;19;20011;-75
2022/07/19 02:47:26;;;;;;;21.80;14.65;;;;;;;19.75;93.62;101868.81;7382113;19;20010;-75
2022/07/19 02:49:56;;;;;;;23.08;14.57;;;;;;;19.73;93.64;101870.63;7382838;19;20039;-75
2022/07/19 02:52:31;;;;;;;26.60;13.40;;;;;;;19.71;93.84;101861.75;7377615;19;20014;-73
2022/07/19 02:55:01;;;;;;;24.77;14.23;;;;;;;19.69;94.46;101862.66;7381365;19;20014;-74
2022/07/19 02:57:31;;;;;;;20.27;14.25;;;;;;;19.64;93.94;101860.03;7382121;19;20023;-74
2022/07/19 03:00:01;;;;;;;20.00;13.13;;;;;;;19.61;94.04;101862.72;7381214;19;20013;-74
2022/07/19 03:02:31;;;;;;;20.15;13.00;;;;;;;19.57;93.92;101867.19;7380531;19;20007;-73
2022/07/19 03:05:01;;;;;;;22.27;13.45;;;;;;;19.54;95.02;101875.19;7381282;19;20615;-74
2022/07/19 03:07:33;;;;;;;24.30;13.10;;;;;;;19.48;94.37;101863.69;7380421;19;20014;-72
2022/07/19 03:10:03;;;;;;;24.52;13.95;;;;;;;19.47;96.96;101868.13;7378910;19;20011;-72
2022/07/19 03:12:33;;;;;;;21.85;14.40;;;;;;;19.43;95.78;101857.50;7379681;19;20006;-72
2022/07/19 03:15:03;;;;;;;21.75;13.30;;;;;;;19.38;96.15;101861.97;7380881;19;20019;-72
2022/07/19 03:17:33;;;;;;;23.38;13.27;;;;;;;19.34;95.21;101860.22;7380253;19;20007;-72
2022/07/19 03:20:03;;;;;;;25.05;14.95;;;;;;;19.33;96.48;101864.66;7376541;19;20011;-72
2022/07/19 03:22:36;;;;;;;23.63;13.55;;;;;;;19.32;96.59;101854.91;7382097;19;20028;-72
2022/07/19 03:25:07;;;;;;;25.40;15.40;;;;;;;19.30;95.60;101855.81;7379379;19;20014;-72
2022/07/19 03:27:37;;;;;;;21.23;14.18;;;;;;;19.28;95.77;101858.50;7378032;19;20045;-72
2022/07/19 03:30:09;;;;;;;27.60;14.88;;;;;;;19.27;96.58;101854.94;7378538;19;20014;-74
2022/07/19 03:32:39;;;;;;;28.27;15.35;;;;;;;19.24;96.15;101849.66;7378773;19;20010;-73
2022/07/19 03:35:10;;;;;;;29.83;15.80;;;;;;;19.24;96.96;101854.09;7379523;19;20011;-72
2022/07/19 03:37:43;;;;;;;28.15;17.77;;;;;;;19.23;97.31;101855.84;7379608;19;20031;-73
2022/07/19 03:40:14;;;;;;;25.90;17.33;;;;;;;19.20;96.91;101853.22;7377607;19;20372;-74
2022/07/19 03:42:44;;;;;;;29.17;17.95;;;;;;;19.16;96.65;101854.13;7378429;19;20367;-72
2022/07/19 03:45:16;;;;;;;30.60;17.05;;;;;;;19.14;96.31;101852.38;7379381;19;20094;-74
2022/07/19 03:47:46;;;;;;;29.15;19.25;;;;;;;19.14;96.84;101853.25;7378236;19;20007;-72
2022/07/19 03:50:17;;;;;;;30.30;16.67;;;;;;;19.14;96.95;101849.72;7378071;19;20627;-74
2022/07/19 03:52:49;;;;;;;24.10;15.52;;;;;;;19.11;97.57;101847.97;7375449;19;20031;-73
2022/07/19 03:55:20;;;;;;;29.38;16.45;;;;;;;19.13;97.30;101853.25;7378117;19;20022;-73
2022/07/19 03:57:50;;;;;;;27.70;18.77;;;;;;;19.13;97.66;101850.59;7379107;19;20546;-72
2022/07/19 04:00:20;;;;;;;31.23;18.98;;;;;;;19.11;97.73;101852.38;7378046;19;20022;-73
2022/07/19 04:02:50;;;;;;;30.90;19.35;;;;;;;19.11;98.31;101853.28;7379028;19;20014;-74
2022/07/19 04:05:20;;;;;;;29.65;16.20;;;;;;;19.14;98.37;101853.25;7376855;19;20018;-74
2022/07/19 04:07:53;;;;;;;25.02;16.45;;;;;;;19.14;98.65;101855.91;7379189;19;20081;-75
2022/07/19 04:10:23;;;;;;;34.05;20.20;;;;;;;19.15;98.23;101852.38;7378378;19;20038;-75
2022/07/19 04:12:53;;;;;;;40.88;24.23;;;;;;;19.17;97.66;101853.25;7380527;19;20073;-74
2022/07/19 04:15:23;;;;;;;31.23;20.48;;;;;;;19.17;97.73;101853.25;7377749;19;20017;-74
2022/07/19 04:17:53;;;;;;;26.48;17.52;;;;;;;19.18;97.69;101854.13;7381571;19;20021;-74
2022/07/19 04:20:24;;;;;;;30.70;19.08;;;;;;;19.20;97.68;101850.56;7378463;19;20006;-74
2022/07/19 04:22:57;;;;;;;32.08;19.83;;;;;;;19.20;97.93;101853.22;7378671;19;20010;-74
2022/07/19 04:25:27;;;;;;;35.13;19.65;;;;;;;19.22;97.38;101851.44;7381295;19;20010;-75
2022/07/19 04:27:57;;;;;;;38.05;21.38;;;;;;;19.25;97.04;101858.50;7379514;19;20325;-74
2022/07/19 04:30:28;;;;;;;32.42;20.02;;;;;;;19.27;97.19;101859.38;7380796;19;20041;-74
2022/07/19 04:32:58;;;;;;;29.65;19.58;;;;;;;19.29;98.11;101857.59;7378983;19;20475;-74
2022/07/19 04:35:28;;;;;;;30.00;19.33;;;;;;;19.33;97.67;101861.13;7376831;19;20011;-75
2022/07/19 04:38:01;;;;;;;29.98;18.20;;;;;;;19.36;97.18;101859.31;7379978;19;20013;-75
2022/07/19 04:40:32;;;;;;;31.23;19.70;;;;;;;19.38;97.31;101859.31;7377970;19;20040;-75
2022/07/19 04:43:02;;;;;;;30.10;18.83;;;;;;;19.44;98.34;101856.63;7380164;19;20014;-75
2022/07/19 04:45:33;;;;;;;31.08;18.08;;;;;;;19.49;97.29;101849.47;7376889;19;20015;-76
2022/07/19 04:48:02;;;;;;;31.70;20.35;;;;;;;19.57;97.00;101850.34;7376244;19;20010;-75
2022/07/19 04:50:32;;;;;;;30.15;17.85;;;;;;;19.60;97.65;101847.66;7377827;19;20019;-74
2022/07/19 04:53:05;;;;;;;31.45;19.17;;;;;;;19.68;97.00;101853.78;7376112;19;20031;-75
2022/07/19 04:55:35;;;;;;;27.38;17.42;;;;;;;19.78;96.82;101846.59;7376413;19;20274;-75
2022/07/19 04:58:05;;;;;;;30.40;19.20;;;;;;;19.88;96.57;101849.16;7380057;19;20014;-75
2022/07/19 05:00:35;;;;;;;31.23;18.02;;;;;;;20.02;96.70;101848.16;7379907;19;20036;-75
2022/07/19 05:03:05;;;;;;;31.77;20.85;;;;;;;20.14;95.86;101843.56;7378818;19;20044;-75
2022/07/19 05:05:35;;;;;;;27.88;17.25;;;;;;;20.28;95.63;101843.44;7379902;19;20167;-75
2022/07/19 05:08:07;;;;;;;36.35;20.73;;;;;;;20.44;93.92;101845.06;7379004;19;20003;-75
2022/07/19 05:10:38;;;;;;;37.15;21.00;;;;;;;20.61;93.03;101841.31;7381905;19;20014;-75
2022/07/19 05:13:08;;;;;;;31.90;20.15;;;;;;;20.76;92.33;101836.69;7380834;19;20164;-75
2022/07/19 05:15:38;;;;;;;30.63;19.05;;;;;;;20.93;91.96;101844.41;7374793;19;20043;-75
2022/07/19 05:18:08;;;;;;;31.00;20.23;;;;;;;21.12;90.62;101842.38;7375551;19;20020;-75
2022/07/19 05:20:37;;;;;;;31.27;18.48;;;;;;;21.29;89.66;101843.03;7380241;19;20031;-75
2022/07/19 05:23:10;;;;;;;30.27;20.13;;;;;;;21.48;88.79;101838.31;7376384;19;20010;-75
2022/07/19 05:25:40;;;;;;;27.73;18.13;;;;;;;21.65;87.79;101836.25;7378610;19;20014;-75
2022/07/19 05:28:10;;;;;;;27.55;19.20;;;;;;;21.84;86.76;101837.66;7376503;19;20007;-75
2022/07/19 05:30:41;;;;;;;35.53;21.95;;;;;;;22.07;85.34;101849.75;7376250;19;20011;-75
2022/07/19 05:33:11;;;;;;;30.65;20.33;;;;;;;22.24;83.84;101842.31;7377291;19;20097;-76
2022/07/19 05:35:41;;;;;;;33.42;21.52;;;;;;;22.41;82.88;101842.88;7373706;19;20013;-74
2022/07/19 05:38:13;;;;;;;35.85;22.48;;;;;;;22.60;81.07;101846.06;7375971;19;20023;-75
2022/07/19 05:40:43;;;;;;;34.15;21.42;;;;;;;22.79;80.20;101836.75;7372533;19;20362;-75
2022/07/19 05:43:13;;;;;;;32.28;21.30;;;;;;;22.95;78.93;101839.94;7373729;19;20483;-75
2022/07/19 05:45:44;;;;;;;35.08;21.98;;;;;;;23.16;78.25;101838.59;7376000;19;20018;-74
2022/07/19 05:48:14;;;;;;;30.13;19.73;;;;;;;23.37;77.70;101831.84;7375691;19;20014;-77
2022/07/19 05:50:43;;;;;;;39.97;24.00;;;;;;;23.48;75.47;101833.34;7373372;19;20388;-76
2022/07/19 05:53:17;;;;;;;32.95;22.83;;;;;;;23.57;75.17;101840.31;7374893;19;20011;-76
2022/07/19 05:55:47;;;;;;;30.55;19.80;;;;;;;23.84;74.91;101840.53;7374240;19;20007;-76
2022/07/19 05:58:17;;;;;;;38.60;23.92;;;;;;;23.95;72.67;101839.31;7374958;19;20011;-76
2022/07/19 06:03:29;;;;;;;34.22;20.38;;;;;;;24.30;71.07;101829.47;7373848;19;20014;-76
2022/07/19 06:05:59;;;;;;;28.60;19.63;;;;;;;24.39;68.54;101835.44;7376555;19;20020;-77
2022/07/19 06:08:32;;;;;;;31.52;20.65;;;;;;;24.53;66.79;101832.38;7371702;19;20010;-76
2022/07/19 06:11:03;;;;;;;32.40;21.48;;;;;;;24.66;66.76;101831.09;7375792;19;20007;-76
2022/07/19 06:13:39;;;;;;;28.58;18.85;;;;;;;24.88;66.25;101828.66;7376308;19;20018;-76
2022/07/19 06:16:11;;;;;;;36.33;18.80;;;;;;;24.96;64.74;101834.66;7370332;19;20006;-76
2022/07/19 06:18:44;;;;;;;33.30;21.10;;;;;;;25.28;64.54;101827.41;7374821;19;20047;-76
2022/07/19 06:21:17;;;;;;;36.38;20.30;;;;;;;25.43;62.98;101833.16;7378014;19;20014;-76
2022/07/19 06:23:50;;;;;;;30.77;19.15;;;;;;;25.58;62.80;101836.25;7382809;19;20014;-76
2022/07/19 06:26:20;;;;;;;30.70;18.92;;;;;;;25.79;61.62;101832.88;7386024;19;20040;-76
2022/07/19 06:28:50;;;;;;;28.73;18.13;;;;;;;25.88;60.29;101834.38;7381727;19;20006;-76
2022/07/19 06:31:20;;;;;;;31.27;20.05;;;;;;;25.86;58.79;101831.75;7382226;19;20068;-76
2022/07/19 06:33:54;;;;;;;28.67;19.48;;;;;;;26.16;59.22;101829.75;7383050;19;20011;-76
2022/07/19 06:36:24;;;;;;;34.10;20.13;;;;;;;26.44;58.52;101835.03;7383274;19;20014;-75
2022/07/19 06:38:57;;;;;;;29.00;16.80;;;;;;;26.72;57.40;101832.19;7381998;19;20010;-75
2022/07/19 06:41:27;;;;;;;27.52;16.70;;;;;;;26.82;56.46;101830.91;7382040;19;20035;-75
2022/07/19 06:43:59;;;;;;;30.50;17.80;;;;;;;27.03;56.26;101823.84;7382989;19;20064;-76
2022/07/19 06:46:29;;;;;;;29.48;17.13;;;;;;;27.23;54.95;101829.25;7380673;19;20286;-75
2022/07/19 06:48:59;;;;;;;29.13;17.40;;;;;;;27.56;54.42;101823.44;7381015;19;20782;-75
2022/07/19 06:51:29;;;;;;;30.95;17.38;;;;;;;27.64;53.12;101826.72;7383748;19;20803;-76
2022/07/19 06:54:02;;;;;;;29.48;17.75;;;;;;;27.64;52.87;101821.31;7377620;19;20006;-75
2022/07/19 06:56:35;;;;;;;28.75;18.02;;;;;;;27.81;53.00;101826.00;7375212;19;20018;-76
2022/07/19 06:59:07;;;;;;;;;;;;;;;28.05;52.16;101814.16;7378149;19;20011;-75
2022/07/19 07:01:39;;;;;;;32.08;19.33;;;;;;;27.95;51.31;101810.97;7377087;19;19914;-75
2022/07/19 07:04:10;;;;;;;24.33;15.05;;;;;;;28.32;50.90;101807.50;7380259;19;20139;-76
2022/07/19 07:06:46;;;;;;;25.95;15.60;;;;;;;28.46;50.23;101808.72;7374118;19;20036;-76
2022/07/19 07:09:19;;;;;;;33.20;17.88;;;;;;;28.56;50.16;101815.44;7376280;19;20197;-74
2022/07/19 07:11:49;;;;;;;26.83;14.50;;;;;;;28.85;49.49;101806.88;7381230;19;20018;-76
2022/07/19 07:14:19;;;;;;;25.60;17.65;;;;;;;28.99;48.90;101808.03;7378557;19;20006;-75
2022/07/19 07:16:53;;;;;;;30.38;18.05;;;;;;;28.96;48.76;101812.63;7377257;19;20015;-75
2022/07/19 07:19:26;;;;;;;29.85;18.40;;;;;;;29.13;48.82;101797.41;7380703;19;20044;-75
2022/07/19 07:21:57;;;;;;;;;;;;;;;29.37;48.13;101808.81;7381832;19;20561;-76
2022/07/19 07:24:29;;;;;;;28.15;16.05;;;;;;;29.35;47.43;101808.91;7378956;19;19918;-75
2022/07/19 07:27:03;;;;;;;28.23;16.00;;;;;;;29.65;46.44;101798.41;7378336;19;20040;-74
2022/07/19 07:29:33;;;;;;;25.90;15.93;;;;;;;29.88;45.73;101802.63;7376322;19;20014;-75
2022/07/19 07:32:03;;;;;;;26.45;15.77;;;;;;;30.00;45.46;101802.00;7378012;19;20416;-76
2022/07/19 07:34:33;;;;;;;26.27;15.10;;;;;;;29.90;45.72;101798.00;7378602;19;20302;-76
2022/07/19 07:37:09;;;;;;;23.00;14.48;;;;;;;30.19;44.94;101794.63;7374624;19;20042;-76
2022/07/19 07:39:43;;;;;;;21.20;14.57;;;;;;;30.42;44.20;101800.63;7379616;19;20015;-76
2022/07/19 07:42:16;;;;;;;24.30;13.82;;;;;;;30.57;44.02;101791.66;7378684;19;20015;-75
2022/07/19 07:44:47;;;;;;;25.25;15.07;;;;;;;30.45;44.07;101798.63;7378462;19;20022;-74
2022/07/19 07:47:17;;;;;;;21.65;13.52;;;;;;;30.79;43.48;101794.09;7377670;19;20051;-75
2022/07/19 07:49:53;;;;;;;24.52;14.38;;;;;;;30.75;43.00;101798.81;7379941;19;20017;-76
2022/07/19 07:52:23;;;;;;;25.30;13.55;;;;;;;30.97;42.94;101800.31;7375702;19;20796;-77
2022/07/19 07:54:55;;;;;;;22.08;13.60;;;;;;;31.06;42.92;101797.06;7377126;19;20067;-76
2022/07/19 07:57:46;;;;;;;24.40;13.98;;;;;;;31.15;42.30;101792.03;7379560;19;20489;-77
2022/07/19 08:00:18;;;;;;;27.83;14.70;;;;;;;31.02;42.65;101798.19;7376319;19;20007;-73
2022/07/19 08:02:52;;;;;;;24.88;13.55;;;;;;;31.31;42.75;101789.25;7375916;19;20014;-74
2022/07/19 08:05:24;;;;;;;25.13;14.15;;;;;;;31.45;41.76;101796.59;7376784;19;20007;-75
2022/07/19 08:07:54;;;;;;;23.98;14.27;;;;;;;31.34;41.86;101794.50;7380960;19;20010;-76
2022/07/19 08:10:28;;;;;;;26.17;14.80;;;;;;;31.46;41.00;101793.78;7379409;19;20015;-76
2022/07/19 08:12:58;;;;;;;24.85;14.05;;;;;;;31.49;40.73;101788.19;7380201;19;20398;-76
2022/07/19 08:15:36;;;;;;;21.05;12.23;;;;;;;31.79;40.23;101790.06;7383169;19;20475;-76
2022/07/19 08:18:07;;;;;;;26.27;12.60;;;;;;;32.02;39.91;101784.09;7381044;19;20017;-76
2022/07/19 08:20:37;;;;;;;22.90;12.20;;;;;;;31.70;39.16;101780.63;7382166;19;20479;-77
2022/07/19 08:23:08;;;;;;;20.50;12.20;;;;;;;31.85;38.67;101784.25;7383453;19;20044;-77
2022/07/19 08:25:43;;;;;;;17.27;11.15;;;;;;;31.99;38.88;101784.28;7382506;19;20011;-77
2022/07/19 08:28:13;;;;;;;14.82;9.82;;;;;;;32.27;38.32;101785.28;7381830;19;20007;-77
2022/07/19 08:30:43;;;;;;;19.70;11.48;;;;;;;32.17;37.95;101783.13;7382012;19;20019;-77
2022/07/19 08:33:33;;;;;;;18.05;10.27;;;;;;;32.35;37.65;101772.97;7382486;19;20018;-77
2022/07/19 08:36:03;;;;;;;17.50;9.77;;;;;;;32.48;37.54;101773.06;7379952;19;20520;-76
2022/07/19 08:38:33;;;;;;;15.15;8.40;;;;;;;32.62;37.82;101772.19;7380546;19;20018;-76
2022/07/19 08:41:08;;;;;;;19.90;9.40;;;;;;;32.53;37.13;101776.34;7381824;19;20264;-76
2022/07/19 08:43:40;;;;;;;15.65;9.35;;;;;;;32.77;36.75;101779.38;7380806;19;20376;-76
2022/07/19 08:46:10;;;;;;;15.85;8.30;;;;;;;32.90;36.44;101768.56;7379204;19;20011;-76
2022/07/19 08:48:40;;;;;;;17.23;8.70;;;;;;;32.87;36.56;101769.63;7379979;19;20573;-74
2022/07/19 08:51:20;;;;;;;13.07;7.65;;;;;;;32.86;36.04;101764.31;7381172;19;20010;-75
2022/07/19 08:53:52;;;;;;;15.63;7.93;;;;;;;33.08;35.84;101761.91;7376822;19;20102;-74
2022/07/19 08:59:10;;;;;;;14.55;7.38;;;;;;;33.71;35.42;101761.22;7381658;19;20017;-75
2022/07/19 09:01:40;;;;;;;11.23;6.70;;;;;;;33.69;35.10;101760.47;7378671;19;20074;-76
2022/07/19 09:04:16;;;;;;;12.60;6.43;;;;;;;33.75;35.06;101760.03;7375924;19;20343;-76
2022/07/19 09:06:48;;;;;;;12.38;6.57;;;;;;;33.81;34.14;101759.66;7380062;19;20010;-75
2022/07/19 09:09:20;;;;;;;11.20;5.80;;;;;;;33.63;33.16;101759.03;7377448;19;20007;-75
2022/07/19 09:11:54;;;;;;;11.88;5.90;;;;;;;33.73;33.22;101754.69;7377429;19;20035;-75
2022/07/19 09:14:26;;;;;;;9.82;5.95;;;;;;;33.82;33.68;101753.22;7377001;19;20034;-77
2022/07/19 09:17:03;;;;;;;14.25;5.97;;;;;;;34.29;32.70;101754.41;7377226;19;20018;-75
2022/07/19 09:19:40;;;;;;;11.07;5.20;;;;;;;34.71;31.56;101748.56;7378023;19;20106;-75
2022/07/19 09:22:11;;;;;;;11.30;5.20;;;;;;;34.70;31.96;101749.53;7378284;19;20014;-75
2022/07/19 09:24:43;;;;;;;10.23;5.73;;;;;;;35.00;31.33;101748.28;7378908;19;20018;-76
2022/07/19 09:27:17;;;;;;;10.65;5.53;;;;;;;35.00;32.01;101740.09;7377203;19;20056;-76
2022/07/19 09:29:48;;;;;;;9.35;5.88;;;;;;;35.00;31.08;101737.38;7378206;19;20109;-77
2022/07/19 09:32:21;;;;;;;11.88;5.82;;;;;;;35.39;31.07;101728.88;7377532;19;20690;-76
2022/07/19 09:34:54;;;;;;;11.70;5.25;;;;;;;35.19;30.74;101740.44;7377986;19;20510;-76
2022/07/19 09:37:26;;;;;;;9.43;5.57;;;;;;;35.51;31.15;101737.97;7377199;19;20726;-76
2022/07/19 09:39:57;;;;;;;10.45;5.63;;;;;;;35.51;30.72;101732.50;7376187;19;20007;-76
2022/07/19 09:42:39;;;;;;;9.38;5.38;;;;;;;35.41;30.64;101739.66;7377995;19;20014;-76
2022/07/19 09:45:12;;;;;;;9.57;5.05;;;;;;;35.07;31.15;101733.19;7377706;19;20007;-76
2022/07/19 09:47:43;;;;;;;10.55;5.60;;;;;;;35.55;30.19;101735.88;7374633;19;20025;-76
2022/07/19 09:50:17;;;;;;;11.55;5.68;;;;;;;35.94;30.01;101727.31;7377253;19;20019;-76
2022/07/19 09:52:49;;;;;;;10.90;5.57;;;;;;;35.70;30.32;101727.34;7373017;19;20014;-76
2022/07/19 09:55:19;;;;;;;9.25;5.93;;;;;;;36.04;30.90;101730.16;7376295;19;20019;-76
2022/07/19 09:57:53;;;;;;;11.20;5.43;;;;;;;36.07;31.66;101729.94;7380983;19;20006;-76
2022/07/19 10:00:26;;;;;;;10.48;5.90;;;;;;;36.21;32.13;101720.63;7383458;19;20018;-76
2022/07/19 10:02:58;;;;;;;11.32;5.82;;;;;;;36.31;31.77;101727.09;7383181;19;20002;-75
2022/07/19 10:05:30;;;;;;;10.80;5.60;;;;;;;35.84;31.17;101714.50;7384420;19;20019;-76
2022/07/19 10:08:02;;;;;;;10.63;5.57;;;;;;;36.29;31.20;101712.72;7382821;19;20400;-77
2022/07/19 10:10:33;;;;;;;8.52;5.30;;;;;;;36.27;30.71;101712.84;7385498;19;20049;-76
2022/07/19 10:13:07;;;;;;;10.65;5.78;;;;;;;36.01;30.08;101709.44;7383362;19;20011;-75
2022/07/19 10:15:44;;;;;;;11.48;5.43;;;;;;;36.01;31.18;101703.97;7383759;19;20349;-75
2022/07/19 10:18:19;;;;;;;8.57;5.18;;;;;;;35.95;30.38;101701.75;7379295;19;20021;-75
2022/07/19 10:20:51;;;;;;;9.60;5.30;;;;;;;36.11;31.21;101698.66;7383835;19;20011;-77
2022/07/19 10:23:31;;;;;;;9.20;5.28;;;;;;;36.48;31.17;101707.44;7384867;19;20011;-75
2022/07/19 10:26:01;;;;;;;9.93;5.18;;;;;;;36.50;31.16;101705.44;7383561;19;20006;-76
2022/07/19 10:28:36;;;;;;;11.20;5.22;;;;;;;36.26;31.64;101707.47;7381996;19;20011;-76
2022/07/19 10:31:30;;;;;;;11.60;5.72;;;;;;;36.60;31.95;101703.69;7382772;19;20014;-75
2022/07/19 10:34:03;;;;;;;9.38;5.20;;;;;;;36.69;30.90;101686.53;7380867;19;20018;-76
2022/07/19 10:36:38;;;;;;;11.18;5.65;;;;;;;36.73;30.51;101691.75;7383621;19;20068;-76
2022/07/19 10:39:24;;;;;;;9.18;5.40;;;;;;;36.53;30.38;101693.41;7383183;19;20017;-76
2022/07/19 10:42:11;;;;;;;8.38;5.25;;;;;;;37.11;30.05;101692.13;7382005;19;20010;-76
2022/07/19 10:45:11;;;;;;;8.20;5.22;;;;;;;37.00;30.52;101687.59;7384808;19;20086;-75
2022/07/19 10:48:06;;;;;;;9.80;5.70;;;;;;;36.91;29.93;101687.50;7383738;19;20010;-75
2022/07/19 10:51:00;;;;;;;8.25;5.38;;;;;;;36.90;30.22;101686.63;7382888;19;20360;-75
2022/07/19 10:54:08;;;;;;;8.00;5.25;;;;;;;36.55;30.47;101681.34;7377657;19;20014;-76
2022/07/19 10:56:59;;;;;;;9.00;5.38;;;;;;;36.84;30.22;101681.69;7383811;19;20015;-76
2022/07/19 10:59:39;;;;;;;10.30;5.57;;;;;;;36.79;30.64;101678.47;7383542;19;20015;-75
2022/07/19 11:02:13;;;;;;;10.15;5.65;;;;;;;36.91;30.50;101671.09;7380540;19;20043;-75
2022/07/19 11:05:07;;;;;;;10.90;5.50;;;;;;;37.27;29.62;101664.38;7381980;19;20021;-75
2022/07/19 11:07:37;;;;;;;8.07;4.72;;;;;;;37.20;28.68;101665.88;7385250;19;20366;-76
2022/07/19 11:10:09;;;;;;;9.52;5.28;;;;;;;37.19;28.43;101670.47;7381565;19;20320;-76
2022/07/19 11:12:40;;;;;;;;;;;;;;;37.55;29.27;101669.13;7383117;19;20020;-75
2022/07/19 11:15:12;;;;;;;13.93;5.93;;;;;;;37.46;28.91;101663.59;7380286;19;20341;-75
2022/07/19 11:17:57;;;;;;;9.23;5.35;;;;;;;37.75;29.21;101661.94;7379962;19;20007;-77
2022/07/19 11:20:32;;;;;;;10.48;5.95;;;;;;;37.51;29.50;101669.53;7383026;19;20085;-76
2022/07/19 11:23:04;;;;;;;10.98;5.10;;;;;;;37.23;29.81;101661.03;7380408;19;20358;-77
2022/07/19 11:25:38;;;;;;;13.23;5.75;;;;;;;37.37;29.01;101661.69;7382743;19;20010;-76
2022/07/19 11:28:21;;;;;;;11.07;5.45;;;;;;;37.48;28.93;101654.25;7382292;19;20014;-77
2022/07/19 11:30:51;;;;;;;;;;;;;;;37.59;29.32;101650.56;7379815;19;20010;-76
2022/07/19 11:33:23;;;;;;;8.52;5.20;;;;;;;37.64;29.23;101653.78;7379288;19;20343;-76
2022/07/19 11:36:00;;;;;;;9.25;5.15;;;;;;;37.65;28.92;101641.81;7382097;19;20435;-76
2022/07/19 11:38:37;;;;;;;9.88;5.20;;;;;;;37.94;28.20;101642.00;7378935;19;20010;-77
2022/07/19 11:41:11;;;;;;;8.93;5.57;;;;;;;38.32;27.35;101630.34;7383739;19;20015;-77
2022/07/19 11:43:43;;;;;;;11.70;5.43;;;;;;;38.02;27.18;101633.97;7380623;19;20014;-76